createdAt,value
2023-02-27T00:00:32.900Z,3.62
2023-02-27T00:03:20.913Z,3.66
2023-02-27T00:05:49.007Z,3.66
2023-02-27T00:08:16.680Z,3.66
2023-02-27T00:10:44.409Z,3.69
2023-02-27T00:13:12.053Z,3.72
2023-02-27T00:15:41.067Z,3.74
2023-02-27T00:18:09.004Z,3.76
2023-02-27T00:20:38.262Z,3.78
2023-02-27T00:23:06.960Z,3.79
2023-02-27T00:25:35.351Z,3.80
2023-02-27T00:28:04.419Z,3.81
2023-02-27T00:30:32.763Z,3.82
2023-02-27T00:33:00.881Z,3.84
2023-02-27T00:35:28.680Z,3.84
2023-02-27T00:37:56.405Z,3.83
2023-02-27T00:40:26.714Z,3.82
2023-02-27T00:42:54.921Z,3.80
2023-02-27T00:45:22.706Z,3.74
2023-02-27T00:47:50.439Z,3.69
2023-02-27T00:50:18.346Z,3.65
2023-02-27T00:52:46.145Z,3.63
2023-02-27T00:55:14.091Z,3.62
2023-02-27T00:57:41.993Z,3.61
2023-02-27T01:00:11.023Z,3.61
2023-02-27T01:02:39.032Z,3.62
2023-02-27T01:05:09.232Z,3.66
2023-02-27T01:07:37.684Z,3.69
2023-02-27T01:10:06.845Z,3.71
2023-02-27T01:12:34.767Z,3.72
2023-02-27T01:15:03.578Z,3.74
2023-02-27T01:17:31.897Z,3.75
2023-02-27T01:19:59.573Z,3.76
2023-02-27T01:22:27.300Z,3.77
2023-02-27T01:24:55.146Z,3.80
2023-02-27T01:27:23.055Z,3.83
2023-02-27T01:29:50.826Z,3.85
2023-02-27T01:32:18.888Z,3.87
2023-02-27T01:34:46.617Z,3.87
2023-02-27T01:37:14.304Z,3.86
2023-02-27T01:39:43.873Z,3.84
2023-02-27T01:42:24.297Z,3.83
2023-02-27T01:45:20.627Z,3.84
2023-02-27T01:47:51.253Z,3.86
2023-02-27T01:50:19.640Z,3.85
2023-02-27T01:52:53.226Z,3.85
2023-02-27T01:55:21.770Z,3.84
2023-02-27T01:57:49.807Z,3.80
2023-02-27T02:00:18.484Z,3.77
2023-02-27T02:03:28.880Z,3.76
2023-02-27T02:05:58.676Z,3.76
2023-02-27T02:08:28.912Z,3.76
2023-02-27T02:10:58.317Z,3.77
2023-02-27T02:13:26.089Z,3.75
2023-02-27T02:16:00.770Z,3.73
2023-02-27T02:18:41.505Z,3.72
2023-02-27T02:21:31.082Z,3.73
2023-02-27T02:24:40.897Z,3.73
2023-02-27T02:27:19.082Z,3.70
2023-02-27T02:30:06.253Z,3.70
2023-02-27T02:32:37.295Z,3.70
2023-02-27T02:35:26.818Z,3.65
2023-02-27T02:38:06.618Z,3.60
2023-02-27T02:40:57.233Z,3.57
2023-02-27T02:43:30.620Z,3.54
2023-02-27T02:46:08.356Z,3.51
2023-02-27T02:48:49.122Z,3.47
2023-02-27T02:51:40.494Z,3.43
2023-02-27T02:54:08.190Z,3.43
2023-02-27T02:56:40.450Z,3.42
2023-02-27T02:59:19.871Z,3.41
2023-02-27T03:01:57.768Z,3.38
2023-02-27T03:04:34.862Z,3.38
2023-02-27T03:07:19.918Z,3.40
2023-02-27T03:09:58.693Z,3.41
2023-02-27T03:12:27.402Z,3.39
2023-02-27T03:15:20.057Z,3.39
2023-02-27T03:17:51.322Z,3.41
2023-02-27T03:20:31.383Z,3.43
2023-02-27T03:23:01.968Z,3.43
2023-02-27T03:25:30.495Z,3.42
2023-02-27T03:28:01.537Z,3.42
2023-02-27T03:30:45.175Z,3.44
2023-02-27T03:33:33.081Z,3.47
2023-02-27T03:36:49.374Z,3.47
2023-02-27T03:39:24.205Z,3.48
2023-02-27T03:42:09.127Z,3.47
2023-02-27T03:45:05.187Z,3.49
2023-02-27T03:47:33.513Z,3.50
2023-02-27T03:50:01.216Z,3.51
2023-02-27T03:52:30.200Z,3.52
2023-02-27T03:55:08.368Z,3.52
2023-02-27T03:57:42.223Z,3.51
2023-02-27T04:00:14.221Z,3.50
2023-02-27T04:02:44.932Z,3.50
2023-02-27T04:05:14.857Z,3.51
2023-02-27T04:08:10.491Z,3.51
2023-02-27T04:10:51.963Z,3.52
2023-02-27T04:14:05.617Z,3.52
2023-02-27T04:16:37.152Z,3.54
2023-02-27T04:19:10.836Z,3.54
2023-02-27T04:21:44.041Z,3.54
2023-02-27T04:24:51.684Z,3.53
2023-02-27T04:27:39.334Z,3.54
2023-02-27T04:30:29.034Z,3.52
2023-02-27T04:33:08.222Z,3.49
2023-02-27T04:35:52.717Z,3.48
2023-02-27T04:38:30.226Z,3.46
2023-02-27T04:41:03.321Z,3.44
2023-02-27T04:43:31.470Z,3.43
2023-02-27T04:46:00.969Z,3.42
2023-02-27T04:48:55.663Z,3.40
2023-02-27T04:51:27.463Z,3.39
2023-02-27T04:54:00.469Z,3.40
2023-02-27T04:56:33.828Z,3.42
2023-02-27T04:59:13.672Z,3.43
2023-02-27T05:01:44.479Z,3.41
2023-02-27T05:04:15.805Z,3.38
2023-02-27T05:06:44.751Z,3.38
2023-02-27T05:09:31.908Z,3.38
2023-02-27T05:12:04.164Z,3.38
2023-02-27T05:14:36.189Z,3.39
2023-02-27T05:17:15.328Z,3.39
2023-02-27T05:19:44.324Z,3.41
2023-02-27T05:22:12.424Z,3.41
2023-02-27T05:25:08.356Z,3.38
2023-02-27T05:27:49.764Z,3.37
2023-02-27T05:30:23.362Z,3.38
2023-02-27T05:32:57.983Z,3.38
2023-02-27T05:35:36.040Z,3.35
2023-02-27T05:38:12.784Z,3.31
2023-02-27T05:40:51.515Z,3.30
2023-02-27T05:43:23.306Z,3.28
2023-02-27T05:45:56.976Z,3.25
2023-02-27T05:48:28.171Z,3.24
2023-02-27T05:50:56.298Z,3.22
2023-02-27T05:53:27.326Z,3.20
2023-02-27T05:55:57.085Z,3.18
2023-02-27T05:58:35.615Z,3.16
2023-02-27T06:01:09.009Z,3.14
2023-02-27T06:03:38.070Z,3.14
2023-02-27T06:06:16.760Z,3.14
2023-02-27T06:08:45.402Z,3.15
2023-02-27T06:11:13.246Z,3.14
2023-02-27T06:13:42.220Z,3.16
2023-02-27T06:16:17.368Z,3.18
2023-02-27T06:18:45.076Z,3.16
2023-02-27T06:21:13.808Z,3.16
2023-02-27T06:23:41.763Z,3.20
2023-02-27T06:26:13.921Z,3.24
2023-02-27T06:28:42.534Z,3.27
2023-02-27T06:31:10.951Z,3.26
2023-02-27T06:33:38.859Z,3.25
2023-02-27T06:36:06.809Z,3.25
2023-02-27T06:38:34.698Z,3.25
2023-02-27T06:41:04.374Z,3.27
2023-02-27T06:43:34.743Z,3.26
2023-02-27T06:46:03.008Z,3.28
2023-02-27T06:48:30.765Z,3.30
2023-02-27T06:50:58.483Z,3.27
2023-02-27T06:53:26.250Z,3.28
2023-02-27T06:55:53.903Z,3.29
2023-02-27T06:58:21.697Z,3.31
2023-02-27T07:00:49.418Z,3.34
2023-02-27T07:03:17.144Z,3.36
2023-02-27T07:05:45.155Z,3.34
2023-02-27T07:08:12.877Z,3.31
2023-02-27T07:10:43.990Z,3.33
2023-02-27T07:13:11.672Z,3.37
2023-02-27T07:15:40.025Z,3.40
2023-02-27T07:18:07.756Z,3.40
2023-02-27T07:20:35.481Z,3.41
2023-02-27T07:23:03.651Z,3.52
2023-02-27T07:25:31.384Z,3.63
2023-02-27T07:27:59.210Z,3.73
2023-02-27T07:30:26.953Z,3.79
2023-02-27T07:32:54.642Z,3.85
2023-02-27T07:35:22.738Z,3.90
2023-02-27T07:37:50.513Z,3.98
2023-02-27T07:40:18.263Z,4.03
2023-02-27T07:42:48.581Z,4.07
2023-02-27T07:45:20.810Z,4.13
2023-02-27T07:47:48.638Z,4.17
2023-02-27T07:50:16.818Z,4.21
2023-02-27T07:52:44.551Z,4.26
2023-02-27T07:55:13.582Z,4.28
2023-02-27T07:57:41.389Z,4.28
2023-02-27T08:00:10.414Z,4.28
2023-02-27T08:02:41.015Z,4.26
2023-02-27T08:05:09.065Z,4.23
2023-02-27T08:07:36.755Z,4.22
2023-02-27T08:10:05.439Z,4.24
2023-02-27T08:12:33.239Z,4.25
2023-02-27T08:15:01.132Z,4.26
2023-02-27T08:17:28.893Z,4.29
2023-02-27T08:19:56.749Z,4.36
2023-02-27T08:22:24.413Z,4.47
2023-02-27T08:24:52.104Z,4.55
2023-02-27T08:27:19.849Z,4.61
2023-02-27T08:29:47.589Z,4.63
2023-02-27T08:32:15.415Z,4.65
2023-02-27T08:34:43.218Z,4.61
2023-02-27T08:37:10.838Z,4.59
2023-02-27T08:39:38.532Z,4.65
2023-02-27T08:42:07.332Z,4.75
2023-02-27T08:44:35.194Z,4.84
2023-02-27T08:47:03.186Z,4.97
2023-02-27T08:49:30.829Z,5.13
2023-02-27T08:51:59.031Z,5.30
2023-02-27T08:54:27.170Z,5.47
2023-02-27T08:56:55.042Z,5.66
2023-02-27T08:59:22.799Z,5.87
2023-02-27T14:02:57.880Z,5.47
2023-02-27T14:05:47.828Z,5.46
2023-02-27T14:08:27.153Z,5.48
2023-02-27T14:11:09.991Z,5.52
2023-02-27T14:13:57.671Z,5.58
2023-02-27T14:16:40.850Z,5.63
2023-02-27T14:19:11.999Z,5.66
2023-02-27T14:21:56.052Z,5.67
2023-02-27T14:24:33.344Z,5.68
2023-02-27T14:27:03.177Z,5.68
2023-02-27T14:29:33.614Z,5.69
2023-02-27T14:32:07.892Z,5.67
2023-02-27T14:34:36.593Z,5.62
2023-02-27T14:37:07.156Z,5.60
2023-02-27T14:39:36.796Z,5.60
2023-02-27T14:42:20.318Z,5.63
2023-02-27T14:44:48.933Z,5.68
2023-02-27T14:47:24.582Z,5.72
2023-02-27T14:49:52.866Z,5.73
2023-02-27T14:52:23.868Z,5.74
2023-02-27T14:54:53.428Z,5.74
2023-02-27T14:57:24.217Z,5.75
2023-02-27T14:59:53.879Z,5.75
2023-02-27T15:02:24.914Z,5.73
2023-02-27T15:04:56.630Z,5.72
2023-02-27T15:07:26.816Z,5.70
2023-02-27T15:09:57.492Z,5.70
2023-02-27T15:12:26.769Z,5.72
2023-02-27T15:14:59.910Z,5.73
2023-02-27T15:17:39.359Z,5.72
2023-02-27T15:20:30.172Z,5.73
2023-02-27T15:22:59.614Z,5.69
2023-02-27T15:25:39.699Z,5.66
2023-02-27T15:28:27.712Z,5.64
2023-02-27T15:30:56.596Z,5.58
2023-02-27T15:33:32.520Z,5.55
2023-02-27T15:36:00.831Z,5.52
2023-02-27T15:38:32.642Z,5.47
2023-02-27T15:41:02.564Z,5.40
2023-02-27T15:43:30.739Z,5.33
2023-02-27T15:45:58.572Z,5.29
2023-02-27T15:48:26.571Z,5.25
2023-02-27T15:50:58.022Z,5.18
2023-02-27T15:53:28.311Z,5.14
2023-02-27T15:56:01.728Z,5.11
2023-02-27T15:58:33.244Z,5.08
2023-02-27T16:01:21.115Z,5.07
2023-02-27T16:03:51.451Z,5.07
2023-02-27T16:06:28.765Z,5.07
2023-02-27T16:09:00.487Z,5.07
2023-02-27T16:11:31.373Z,5.09
2023-02-27T16:13:59.486Z,5.09
2023-02-27T16:16:36.105Z,5.08
2023-02-27T16:19:27.586Z,5.06
2023-02-27T16:22:15.237Z,5.05
2023-02-27T16:24:44.385Z,5.03
2023-02-27T16:27:29.479Z,5.04
2023-02-27T16:30:02.432Z,5.02
2023-02-27T16:32:35.482Z,5.02
2023-02-27T16:35:08.724Z,5.01
2023-02-27T16:37:39.312Z,4.98
2023-02-27T16:40:24.360Z,4.96
2023-02-27T16:42:52.666Z,4.95
2023-02-27T16:45:26.517Z,4.94
2023-02-27T16:47:56.850Z,4.94
2023-02-27T16:50:28.798Z,4.94
2023-02-27T16:52:57.474Z,4.95
2023-02-27T16:55:25.612Z,4.96
2023-02-27T16:57:53.466Z,4.97
2023-02-27T17:00:22.862Z,4.97
2023-02-27T17:02:51.244Z,4.95
2023-02-27T17:05:19.148Z,4.95
2023-02-27T17:07:47.242Z,4.97
2023-02-27T17:10:17.797Z,4.99
2023-02-27T17:12:48.305Z,4.98
2023-02-27T17:15:16.482Z,4.96
2023-02-27T17:17:45.044Z,4.95
2023-02-27T17:20:15.243Z,4.94
2023-02-27T17:22:44.980Z,4.93
2023-02-27T17:25:13.478Z,4.93
2023-02-27T17:27:44.896Z,4.95
2023-02-27T17:30:14.483Z,4.96
2023-02-27T17:32:42.666Z,4.96
2023-02-27T17:35:10.839Z,4.97
2023-02-27T17:37:38.819Z,4.96
2023-02-27T17:40:08.292Z,4.94
2023-02-27T17:42:36.847Z,4.89
2023-02-27T17:45:06.459Z,4.85
2023-02-27T17:47:35.090Z,4.84
2023-02-27T17:50:04.920Z,4.84
2023-02-27T17:52:35.885Z,4.83
2023-02-27T17:55:04.276Z,4.81
2023-02-27T17:57:35.711Z,4.81
2023-02-27T18:00:06.012Z,4.84
2023-02-27T18:02:34.054Z,4.84
2023-02-27T18:05:04.642Z,4.84
2023-02-27T18:07:32.823Z,4.83
2023-02-27T18:10:00.560Z,4.80
2023-02-27T18:12:28.356Z,4.77
2023-02-27T18:14:56.538Z,4.72
2023-02-27T18:17:24.323Z,4.67
2023-02-27T18:19:52.063Z,4.64
2023-02-27T18:22:21.821Z,4.59
2023-02-27T18:24:53.364Z,4.57
2023-02-27T18:27:24.864Z,4.51
2023-02-27T18:29:52.717Z,4.49
2023-02-27T18:32:21.020Z,4.48
2023-02-27T18:34:49.127Z,4.46
2023-02-27T18:37:16.834Z,4.46
2023-02-27T18:39:44.620Z,4.42
2023-02-27T18:42:12.309Z,4.39
2023-02-27T18:44:41.389Z,4.38
2023-02-27T18:47:09.812Z,4.37
2023-02-27T18:49:38.006Z,4.34
2023-02-27T18:52:05.903Z,4.30
2023-02-27T18:54:33.748Z,4.27
2023-02-27T18:57:01.660Z,4.24
2023-02-27T18:59:29.424Z,4.20
2023-02-27T19:01:58.083Z,4.18
2023-02-27T19:04:26.077Z,4.16
2023-02-27T19:06:53.936Z,4.12
2023-02-27T19:09:22.347Z,4.07
2023-02-27T19:11:50.429Z,4.04
2023-02-27T19:14:18.423Z,4.02
2023-02-27T19:16:46.363Z,4.01
2023-02-27T19:19:15.289Z,3.99
2023-02-27T19:21:43.723Z,3.95
2023-02-27T19:24:12.830Z,3.92
2023-02-27T19:26:40.944Z,3.89
2023-02-27T19:29:08.824Z,3.86
2023-02-27T19:31:36.994Z,3.82
2023-02-27T19:34:05.373Z,3.78
2023-02-27T19:36:34.597Z,3.76
2023-02-27T19:39:03.762Z,3.74
2023-02-27T19:41:33.405Z,3.72
2023-02-27T19:44:01.581Z,3.70
2023-02-27T19:46:32.359Z,3.67
2023-02-27T19:49:05.534Z,3.64
2023-02-27T19:51:33.930Z,3.60
2023-02-27T19:54:01.774Z,3.57
2023-02-27T19:56:30.694Z,3.54
2023-02-27T19:59:00.977Z,3.51
2023-02-27T20:01:34.423Z,3.50
2023-02-27T20:04:03.456Z,3.46
2023-02-27T20:06:33.690Z,3.44
2023-02-27T20:09:01.595Z,3.42
2023-02-27T20:11:31.025Z,3.40
2023-02-27T20:13:59.220Z,3.36
2023-02-27T20:16:29.832Z,3.33
2023-02-27T20:18:57.977Z,3.31
2023-02-27T20:21:28.638Z,3.31
2023-02-27T20:23:58.309Z,3.31
2023-02-27T20:26:34.966Z,3.31
2023-02-27T20:29:07.069Z,3.32
2023-02-27T20:31:36.295Z,3.33
2023-02-27T20:34:06.232Z,3.35
2023-02-27T20:36:35.374Z,3.36
2023-02-27T20:39:04.536Z,3.37
2023-02-27T20:41:34.579Z,3.39
2023-02-27T20:44:04.390Z,3.42
2023-02-27T20:46:32.673Z,3.46
2023-02-27T20:49:02.495Z,3.48
2023-02-27T20:51:42.131Z,3.51
2023-02-27T20:54:13.609Z,3.53
2023-02-27T20:56:43.201Z,3.56
2023-02-27T20:59:18.938Z,3.58
2023-02-27T21:01:51.589Z,3.60
2023-02-27T21:04:20.065Z,3.63
2023-02-27T21:06:48.442Z,3.65
2023-02-27T21:09:16.782Z,3.66
2023-02-27T21:11:44.892Z,3.68
2023-02-27T21:14:12.727Z,3.68
2023-02-27T21:16:40.706Z,3.68
2023-02-27T21:19:08.713Z,3.70
2023-02-27T21:21:37.170Z,3.71
2023-02-27T21:24:06.462Z,3.71
2023-02-27T21:26:40.286Z,3.71
2023-02-27T21:29:13.801Z,3.72
2023-02-27T21:31:45.219Z,3.72
2023-02-27T21:34:15.778Z,3.74
2023-02-27T21:36:45.259Z,3.76
2023-02-27T21:39:16.136Z,3.77
2023-02-27T21:41:44.582Z,3.79
2023-02-27T21:44:15.065Z,3.79
2023-02-27T21:46:43.410Z,3.82
2023-02-27T21:49:17.525Z,3.84
2023-02-27T21:51:46.724Z,3.85
2023-02-27T21:54:15.483Z,3.85
2023-02-27T21:56:45.638Z,3.86
2023-02-27T21:59:14.671Z,3.88
2023-02-27T22:01:47.357Z,3.88
2023-02-27T22:04:17.094Z,3.89
2023-02-27T22:06:45.443Z,3.90
2023-02-27T22:09:13.759Z,3.92
2023-02-27T22:11:41.856Z,3.91
2023-02-27T22:14:10.699Z,3.88
2023-02-27T22:16:38.921Z,3.86
2023-02-27T22:19:08.631Z,3.86
2023-02-27T22:21:37.694Z,3.85
2023-02-27T22:24:06.837Z,3.85
2023-02-27T22:26:35.105Z,3.85
2023-02-27T22:29:04.701Z,3.83
2023-02-27T22:31:35.238Z,3.82
2023-02-27T22:34:18.606Z,3.82
2023-02-27T22:36:52.669Z,3.83
2023-02-27T22:39:21.508Z,3.83
2023-02-27T22:41:49.527Z,3.82
2023-02-27T22:44:17.290Z,3.83
2023-02-27T22:46:47.998Z,3.84
2023-02-27T22:49:21.399Z,3.85
2023-02-27T22:51:51.189Z,3.86
2023-02-27T22:54:21.910Z,3.88
2023-02-27T22:56:51.515Z,3.90
2023-02-27T22:59:19.872Z,3.91
2023-02-27T23:01:48.779Z,3.93
2023-02-27T23:04:20.852Z,3.96
2023-02-27T23:06:49.544Z,3.98
2023-02-27T23:09:20.600Z,3.99
2023-02-27T23:11:48.553Z,4.00
2023-02-27T23:14:17.239Z,4.02
2023-02-27T23:16:45.897Z,4.03
2023-02-27T23:19:16.052Z,4.04
2023-02-27T23:21:43.833Z,4.01
2023-02-27T23:24:14.346Z,4.00
2023-02-27T23:26:44.867Z,3.99
2023-02-27T23:29:12.974Z,4.00
2023-02-27T23:31:42.307Z,4.00
2023-02-27T23:34:10.549Z,4.02
2023-02-27T23:36:38.702Z,4.05
2023-02-27T23:39:07.146Z,4.07
2023-02-27T23:41:34.832Z,4.09
2023-02-27T23:44:21.547Z,4.10
2023-02-27T23:46:49.756Z,4.10
2023-02-27T23:49:17.395Z,4.09
2023-02-27T23:51:45.169Z,4.06
2023-02-27T23:54:12.981Z,4.04
2023-02-27T23:56:40.653Z,4.03
2023-02-27T23:59:08.369Z,4.01
